General Mitchell International Airport
KMKE : now visible

Airfield :











YOU CAN JOIN US ON...

 
LOGIN :

Register | Disclaimer

   EN    FR    IT 

 









Legend :    VFR   Marginal VFR   IFR   Intensive IFR   Very Intensive IFR
Visi :
Ceiling :
>= 8 km
>= 3000ft
5 to 8 km
1000 to 3000 ft
1500m to 5 km
500 to 1000 ft
800 to 1500m
200 to 500 ft
< 800m
< 200 ft
Symbols :   Thunderstorms  Fog  Heavy snow  Heavy precipitations  Wind > 20 kt






- Airport Elevation : 723 ft
- IATA code : MKE


KMKE - General Mitchell International

CURRENT METAR :
  • 130252Z 00000KT 10SM FEW070 21/14 A2994 RMK AO2 SLP133 T02060139 53003 $

EXPIRED METARs :
  • 130152Z 00000KT 10SM FEW070 FEW250 21/14 A2993 RMK AO2 SLP130 T02060144 $
  • 130052Z 08005KT 10SM SCT070 SCT250 21/14 A2993 RMK AO2 SLP132 T02110144 $

TAF KMKE
Valid from the 13 at 04:00 until the 14 at 06:00 UTC


130330Z 1304/1406 VRB03KT P6SM FEW050
FM131500 01003KT P6SM SCT040
FM132000 04005KT P6SM SCT050 BKN070
KZAU FIR / North America



MET'MAP, your aeronautical weather chart ! - Copyright ORBIFLY December 2007 - Disclaimer

ORBIFLY MET'MAP TEAM :

Programming & Development : Alexandra Zaïnal
Concept & original design : Baudouin d'Aumeries
Assistance for programming : Marc-Olivier Méhu
Technical & hardware support : Manuel Goepfert

Contact : metmap@orbifly.com




SOURCES & CREDITS :

   NOAA       Earth
Advisory